createdAt,value
2022-10-19T00:08:34.782Z,85.81
2022-10-19T00:18:37.402Z,86.16
2022-10-19T00:28:42.087Z,86.12
2022-10-19T00:38:45.343Z,86.22
2022-10-19T00:58:57.559Z,86.21
2022-10-19T01:09:01.540Z,85.92
2022-10-19T01:19:12.067Z,86.08
2022-10-19T01:29:23.832Z,86.25
2022-10-19T01:39:37.242Z,86.19
2022-10-19T01:49:45.603Z,85.67
2022-10-19T01:59:50.478Z,85.55
2022-10-19T02:09:53.095Z,84.93
2022-10-19T02:19:58.087Z,84.00
2022-10-19T02:30:00.818Z,82.57
2022-10-19T02:40:06.739Z,81.60
2022-10-19T02:50:11.112Z,80.87
2022-10-19T03:00:15.303Z,81.39
2022-10-19T03:10:18.027Z,81.91
2022-10-19T03:20:22.036Z,82.44
2022-10-19T03:30:24.663Z,83.21
2022-10-19T03:40:28.630Z,83.11
2022-10-19T03:50:31.215Z,83.00
2022-10-19T04:00:35.163Z,82.77
2022-10-19T04:10:37.787Z,83.40
2022-10-19T04:20:42.756Z,83.14
2022-10-19T04:30:45.432Z,82.38
2022-10-19T04:40:49.462Z,82.12
2022-10-19T04:50:55.456Z,80.82
2022-10-19T05:00:59.449Z,80.85
2022-10-19T05:11:03.875Z,81.08
2022-10-19T05:21:10.488Z,79.98
2022-10-19T05:31:15.147Z,80.49
2022-10-19T05:41:19.499Z,79.98
2022-10-19T05:51:23.471Z,79.95
2022-10-19T06:01:28.803Z,80.36
2022-10-19T06:11:33.863Z,79.53
2022-10-19T06:21:39.630Z,79.66
2022-10-19T06:31:46.308Z,80.19
2022-10-19T06:41:50.314Z,80.52
2022-10-19T06:51:52.952Z,80.65
2022-10-19T07:01:56.888Z,80.46
2022-10-19T07:11:59.487Z,80.98
2022-10-19T07:22:03.705Z,80.91
2022-10-19T07:32:06.532Z,81.14
2022-10-19T07:42:10.607Z,81.39
2022-10-19T07:52:13.286Z,81.14
2022-10-19T08:02:18.043Z,80.07
2022-10-19T08:12:20.708Z,79.15
2022-10-19T08:22:24.675Z,78.38
2022-10-19T08:32:27.263Z,77.45
2022-10-19T08:42:42.150Z,76.54
2022-10-19T08:52:48.303Z,75.66
2022-10-19T09:03:05.759Z,75.22
2022-10-19T09:13:17.617Z,74.51
2022-10-19T09:23:28.343Z,73.67
2022-10-19T09:33:35.799Z,72.17
2022-10-19T09:43:40.075Z,71.18
2022-10-19T09:53:45.982Z,70.25
2022-10-19T10:03:53.885Z,67.33
2022-10-19T10:14:02.994Z,66.33
2022-10-19T10:24:21.750Z,64.77
2022-10-19T10:34:49.371Z,64.96
2022-10-19T10:44:56.385Z,64.49
2022-10-19T10:55:01.655Z,64.51
2022-10-19T11:05:11.332Z,64.08
2022-10-19T11:15:20.015Z,65.00
2022-10-19T11:25:33.531Z,61.59
2022-10-19T11:35:45.049Z,31.37
2022-10-19T11:45:59.675Z,25.46
2022-10-19T11:56:09.191Z,21.17
2022-10-19T12:06:21.370Z,31.92
2022-10-19T12:16:28.627Z,35.49
2022-10-19T12:26:36.748Z,45.66
2022-10-19T12:36:45.149Z,49.52
2022-10-19T12:46:53.099Z,48.47
2022-10-19T12:56:59.114Z,49.69
2022-10-19T13:07:05.714Z,51.51
2022-10-19T13:17:08.799Z,53.65
2022-10-19T13:27:37.921Z,53.68
2022-10-19T13:37:41.080Z,56.06
2022-10-19T13:47:49.557Z,52.43
2022-10-19T13:58:07.021Z,54.45
2022-10-19T14:08:23.731Z,55.67
2022-10-19T14:18:28.741Z,57.66
2022-10-19T14:28:33.947Z,59.54
2022-10-19T14:38:39.513Z,60.68
2022-10-19T14:48:45.970Z,61.86
2022-10-19T14:58:51.767Z,62.10
2022-10-19T15:08:58.381Z,63.08
2022-10-19T15:19:05.218Z,63.90
2022-10-19T15:29:12.847Z,63.85
2022-10-19T15:39:37.789Z,65.02
2022-10-19T15:50:01.421Z,66.43
2022-10-19T16:00:13.600Z,67.85
2022-10-19T16:10:20.978Z,68.57
2022-10-19T16:20:24.966Z,69.52
2022-10-19T16:30:28.905Z,71.34
2022-10-19T16:40:32.342Z,71.96
2022-10-19T16:50:36.387Z,73.30
2022-10-19T17:00:39.106Z,74.06
2022-10-19T17:10:43.090Z,75.09
2022-10-19T17:20:45.740Z,76.10
2022-10-19T17:30:52.198Z,76.07
2022-10-19T17:40:54.819Z,77.38
2022-10-19T17:51:00.740Z,76.95
2022-10-19T18:01:03.923Z,77.63
2022-10-19T18:11:10.831Z,77.50
2022-10-19T18:21:14.946Z,77.95
2022-10-19T18:31:20.727Z,78.33
2022-10-19T18:41:24.508Z,78.84
2022-10-19T18:51:28.656Z,79.95
2022-10-19T19:01:31.601Z,80.15
2022-10-19T19:11:38.117Z,80.43
2022-10-19T19:21:43.624Z,80.30
2022-10-19T19:31:48.091Z,80.42
2022-10-19T19:41:51.155Z,80.94
2022-10-19T19:51:55.688Z,80.22
2022-10-19T20:01:58.340Z,80.72
2022-10-19T20:12:02.280Z,80.52
2022-10-19T20:22:06.225Z,81.23
2022-10-19T20:32:10.723Z,81.91
2022-10-19T20:42:13.803Z,82.20
2022-10-19T20:52:17.963Z,81.82
2022-10-19T21:02:20.623Z,81.80
2022-10-19T21:12:26.744Z,82.08
2022-10-19T21:22:30.201Z,82.88
2022-10-19T21:32:36.217Z,82.98
2022-10-19T21:42:38.881Z,83.15
2022-10-19T21:52:42.825Z,83.44
2022-10-19T22:02:45.455Z,84.29
2022-10-19T22:12:49.431Z,83.27
2022-10-19T22:22:54.883Z,83.71
2022-10-19T22:32:59.087Z,83.67
2022-10-19T22:43:04.923Z,83.84
2022-10-19T22:53:11.063Z,84.09
2022-10-19T23:03:13.676Z,84.30
2022-10-19T23:13:17.667Z,83.87
2022-10-19T23:23:20.435Z,84.48
2022-10-19T23:33:24.829Z,84.54
2022-10-19T23:43:27.513Z,84.27
2022-10-19T23:53:35.847Z,84.10
